createdAt,value
2023-04-15T00:01:04.820Z,25.63
2023-04-15T00:03:32.170Z,24.92
2023-04-15T00:06:00.250Z,22.92
2023-04-15T00:08:27.700Z,22.58
2023-04-15T00:10:54.605Z,22.42
2023-04-15T00:13:21.724Z,23.10
2023-04-15T00:15:48.871Z,22.52
2023-04-15T00:18:16.028Z,23.35
2023-04-15T00:20:42.884Z,22.70
2023-04-15T00:23:09.822Z,23.42
2023-04-15T00:25:36.983Z,22.63
2023-04-15T00:28:04.221Z,25.95
2023-04-15T00:30:31.748Z,34.17
2023-04-15T00:32:58.729Z,28.83
2023-04-15T00:35:25.725Z,22.75
2023-04-15T00:37:52.976Z,21.17
2023-04-15T00:40:22.109Z,21.10
2023-04-15T00:42:48.956Z,20.15
2023-04-15T00:45:16.106Z,20.50
2023-04-15T00:47:44.774Z,19.73
2023-04-15T00:50:13.067Z,20.83
2023-04-15T00:52:41.180Z,18.83
2023-04-15T00:55:09.585Z,19.52
2023-04-15T00:57:37.446Z,19.90
2023-04-15T01:00:08.239Z,22.80
2023-04-15T01:02:37.068Z,22.00
2023-04-15T01:05:04.627Z,21.65
2023-04-15T01:07:32.409Z,23.70
2023-04-15T01:09:59.611Z,23.80
2023-04-15T01:12:28.258Z,22.60
2023-04-15T01:14:56.476Z,24.50
2023-04-15T01:17:25.466Z,24.48
2023-04-15T01:19:53.412Z,24.00
2023-04-15T01:22:20.424Z,22.90
2023-04-15T01:25:02.637Z,24.15
2023-04-15T01:27:30.680Z,25.63
2023-04-15T01:29:57.786Z,25.02
2023-04-15T01:32:25.419Z,25.02
2023-04-15T01:34:52.348Z,26.67
2023-04-15T01:37:19.287Z,24.92
2023-04-15T01:39:46.759Z,25.73
2023-04-15T01:42:13.625Z,25.15
2023-04-15T01:44:40.487Z,30.75
2023-04-15T01:47:07.494Z,32.83
2023-04-15T01:49:35.030Z,28.70
2023-04-15T01:52:01.918Z,28.13
2023-04-15T01:54:28.879Z,26.00
2023-04-15T01:56:57.079Z,31.38
2023-04-15T01:59:24.016Z,26.73
2023-04-15T02:01:51.180Z,30.20
2023-04-15T02:04:18.597Z,27.75
2023-04-15T02:06:46.341Z,28.67
2023-04-15T02:09:13.672Z,34.85
2023-04-15T02:11:40.582Z,34.50
2023-04-15T02:14:07.461Z,34.58
2023-04-15T02:16:34.956Z,32.50
2023-04-15T02:19:02.420Z,29.75
2023-04-15T02:21:30.528Z,28.15
2023-04-15T02:23:57.664Z,29.25
2023-04-15T02:26:25.815Z,29.98
2023-04-15T02:28:52.738Z,30.63
2023-04-15T02:31:19.822Z,30.08
2023-04-15T02:33:47.096Z,26.25
2023-04-15T02:36:13.960Z,27.73
2023-04-15T02:38:42.799Z,29.50
2023-04-15T02:41:12.971Z,28.38
2023-04-15T02:43:40.234Z,31.08
2023-04-15T02:46:07.380Z,34.25
2023-04-15T02:48:34.517Z,32.72
2023-04-15T02:51:23.082Z,36.67
2023-04-15T02:53:50.897Z,38.83
2023-04-15T02:56:19.579Z,40.25
2023-04-15T02:58:46.801Z,39.30
2023-04-15T03:01:14.235Z,42.28
2023-04-15T03:03:41.642Z,40.45
2023-04-15T03:06:09.269Z,43.15
2023-04-15T03:08:36.640Z,43.55
2023-04-15T03:11:04.336Z,45.97
2023-04-15T03:13:31.813Z,40.13
2023-04-15T03:15:58.702Z,36.40
2023-04-15T03:18:25.876Z,35.25
2023-04-15T03:20:52.889Z,33.03
2023-04-15T03:23:20.019Z,29.92
2023-04-15T03:25:46.882Z,26.92
2023-04-15T03:28:13.924Z,29.92
2023-04-15T03:30:41.172Z,31.75
2023-04-15T03:33:08.818Z,30.48
2023-04-15T03:35:35.764Z,37.40
2023-04-15T03:38:02.594Z,34.45
2023-04-15T03:40:29.550Z,32.60
2023-04-15T03:42:56.588Z,29.73
2023-04-15T03:45:23.855Z,27.70
2023-04-15T03:47:50.840Z,27.25
2023-04-15T03:50:18.184Z,26.70
2023-04-15T03:52:45.950Z,25.67
2023-04-15T03:55:12.936Z,26.00
2023-04-15T03:57:39.979Z,25.08
2023-04-15T04:00:09.554Z,26.13
2023-04-15T04:02:37.088Z,26.27
2023-04-15T04:05:04.775Z,25.20
2023-04-15T04:07:32.603Z,28.05
2023-04-15T04:09:59.450Z,30.30
2023-04-15T04:12:26.533Z,29.85
2023-04-15T04:14:53.712Z,28.00
2023-04-15T04:17:20.804Z,30.13
2023-04-15T04:19:47.947Z,34.50
2023-04-15T04:22:14.828Z,36.17
2023-04-15T04:24:41.663Z,41.22
2023-04-15T04:27:08.554Z,47.33
2023-04-15T04:29:35.426Z,43.75
2023-04-15T04:32:02.312Z,35.17
2023-04-15T04:34:29.224Z,31.83
2023-04-15T04:36:56.233Z,29.88
2023-04-15T04:39:23.161Z,29.25
2023-04-15T04:41:52.495Z,29.92
2023-04-15T04:44:19.421Z,31.15
2023-04-15T04:46:46.649Z,27.27
2023-04-15T04:49:13.519Z,26.73
2023-04-15T04:51:40.500Z,31.27
2023-04-15T04:54:07.868Z,30.85
2023-04-15T04:56:34.991Z,30.00
2023-04-15T04:59:02.405Z,33.40
2023-04-15T05:01:29.546Z,34.63
2023-04-15T05:03:56.835Z,35.38
2023-04-15T05:06:23.860Z,33.28
2023-04-15T05:08:51.252Z,33.75
2023-04-15T05:11:18.137Z,36.20
2023-04-15T05:13:45.171Z,30.48
2023-04-15T05:16:12.594Z,43.10
2023-04-15T05:18:39.479Z,38.65
2023-04-15T05:21:07.062Z,42.95
2023-04-15T05:23:34.348Z,46.20
2023-04-15T05:26:01.375Z,43.85
2023-04-15T05:28:28.237Z,46.92
2023-04-15T05:30:55.704Z,38.55
2023-04-15T05:33:23.561Z,41.65
2023-04-15T05:35:50.760Z,38.70
2023-04-15T05:38:17.625Z,38.45
2023-04-15T05:40:44.544Z,45.50
2023-04-15T05:43:11.888Z,37.72
2023-04-15T05:45:38.752Z,40.05
2023-04-15T05:48:05.889Z,35.95
2023-04-15T05:50:32.937Z,32.72
2023-04-15T05:52:59.886Z,41.20
2023-04-15T05:55:27.691Z,37.20
2023-04-15T05:57:54.560Z,33.33
2023-04-15T06:00:21.895Z,35.97
2023-04-15T06:02:48.874Z,33.72
2023-04-15T06:05:15.963Z,34.40
2023-04-15T06:07:45.515Z,34.35
2023-04-15T06:10:13.906Z,32.83
2023-04-15T06:12:41.086Z,32.15
2023-04-15T06:15:10.794Z,36.35
2023-04-15T06:17:37.749Z,34.50
2023-04-15T06:20:05.295Z,36.92
2023-04-15T06:22:32.189Z,39.42
2023-04-15T06:24:59.077Z,39.25
2023-04-15T06:27:26.113Z,45.40
2023-04-15T06:29:53.016Z,36.22
2023-04-15T06:32:19.921Z,31.58
2023-04-15T06:34:47.228Z,37.55
2023-04-15T06:37:16.575Z,36.28
2023-04-15T06:39:45.026Z,40.42
2023-04-15T06:42:12.397Z,38.30
2023-04-15T06:44:40.114Z,32.40
2023-04-15T06:47:07.102Z,34.45
2023-04-15T06:49:34.181Z,39.92
2023-04-15T06:52:01.866Z,33.85
2023-04-15T06:54:28.722Z,34.15
2023-04-15T06:56:55.972Z,37.70
2023-04-15T06:59:22.839Z,35.83
2023-04-15T07:01:50.023Z,39.13
2023-04-15T07:04:17.158Z,34.08
2023-04-15T07:06:44.788Z,37.08
2023-04-15T07:09:12.086Z,37.20
2023-04-15T07:11:38.928Z,36.38
2023-04-15T07:14:06.193Z,35.35
2023-04-15T07:16:33.237Z,34.72
2023-04-15T07:19:00.287Z,34.83
2023-04-15T07:21:27.945Z,30.88
2023-04-15T07:23:54.875Z,31.95
2023-04-15T07:26:21.974Z,34.30
2023-04-15T07:28:49.756Z,32.53
2023-04-15T07:31:17.912Z,29.33
2023-04-15T07:33:45.289Z,27.80
2023-04-15T07:36:12.154Z,28.73
2023-04-15T07:38:39.942Z,26.55
2023-04-15T07:41:06.939Z,27.58
2023-04-15T07:43:34.187Z,29.30
2023-04-15T07:46:01.080Z,27.92
2023-04-15T07:48:27.943Z,28.73
2023-04-15T07:50:54.789Z,25.38
2023-04-15T07:53:21.695Z,25.77
2023-04-15T07:55:48.526Z,23.80
2023-04-15T07:58:15.911Z,25.92
2023-04-15T08:00:42.790Z,22.83
2023-04-15T08:03:09.889Z,24.38
2023-04-15T08:05:36.980Z,23.75
2023-04-15T08:08:03.921Z,24.33
2023-04-15T08:10:31.021Z,23.90
2023-04-15T08:12:57.929Z,23.00
2023-04-15T08:15:25.843Z,22.17
2023-04-15T08:17:52.927Z,21.30
2023-04-15T08:20:20.877Z,21.05
2023-04-15T08:22:52.148Z,21.70
2023-04-15T08:25:20.332Z,22.35
2023-04-15T08:27:47.566Z,22.65
2023-04-15T08:30:14.833Z,19.13
2023-04-15T08:32:46.530Z,18.50
2023-04-15T08:35:14.352Z,21.45
2023-04-15T08:37:41.520Z,20.88
2023-04-15T08:40:10.143Z,18.95
2023-04-15T08:42:49.590Z,18.27
2023-04-15T08:45:18.527Z,15.98
2023-04-15T08:47:47.148Z,15.95
2023-04-15T08:50:15.673Z,15.18
2023-04-15T08:52:42.846Z,16.88
2023-04-15T08:55:11.850Z,16.90
2023-04-15T08:57:40.060Z,18.00
2023-04-15T09:00:10.021Z,15.40
2023-04-15T09:02:37.419Z,15.05
2023-04-15T09:05:06.782Z,15.02
2023-04-15T09:07:36.093Z,12.38
2023-04-15T09:10:05.012Z,11.88
2023-04-15T09:12:37.802Z,11.45
2023-04-15T09:15:05.280Z,11.45
2023-04-15T09:17:34.877Z,11.07
2023-04-15T09:20:14.867Z,11.73
2023-04-15T09:22:45.171Z,11.25
2023-04-15T09:25:32.162Z,10.90
2023-04-15T09:28:02.341Z,11.13
2023-04-15T09:30:30.015Z,10.93
2023-04-15T09:33:00.045Z,9.55
2023-04-15T09:35:30.344Z,9.15
2023-04-15T09:38:10.248Z,7.88
2023-04-15T09:40:43.490Z,7.25
2023-04-15T09:43:13.229Z,7.85
2023-04-15T09:45:49.172Z,7.47
2023-04-15T09:48:27.036Z,7.80
2023-04-15T09:50:54.616Z,7.38
2023-04-15T09:53:23.866Z,7.03
2023-04-15T09:55:58.832Z,6.30
2023-04-15T09:58:31.805Z,6.45
2023-04-15T10:01:02.097Z,6.18
2023-04-15T10:03:36.187Z,6.55
2023-04-15T10:06:06.482Z,6.50
2023-04-15T10:08:35.268Z,6.63
2023-04-15T10:11:02.941Z,6.85
2023-04-15T10:13:37.753Z,7.40
2023-04-15T10:16:12.551Z,6.95
2023-04-15T10:18:45.355Z,7.68
2023-04-15T10:21:18.846Z,7.68
2023-04-15T10:23:47.043Z,7.30
2023-04-15T10:26:17.437Z,6.97
2023-04-15T10:28:47.396Z,6.72
2023-04-15T10:31:15.378Z,7.18
2023-04-15T10:33:45.092Z,7.50
2023-04-15T10:36:13.429Z,8.00
2023-04-15T10:38:45.977Z,7.15
2023-04-15T10:41:19.478Z,6.78
2023-04-15T10:44:05.430Z,6.78
2023-04-15T10:46:46.989Z,6.70
2023-04-15T10:49:25.422Z,6.20
2023-04-15T10:51:58.728Z,6.28
2023-04-15T10:54:25.518Z,6.13
2023-04-15T10:57:08.966Z,5.88
2023-04-15T11:00:01.251Z,6.00
2023-04-15T11:02:55.022Z,6.00
2023-04-15T11:05:44.190Z,6.10
2023-04-15T11:08:12.456Z,6.18
2023-04-15T11:10:39.290Z,6.03
2023-04-15T11:13:12.322Z,6.25
2023-04-15T11:15:47.518Z,5.32
2023-04-15T11:18:24.037Z,6.30
2023-04-15T11:20:59.797Z,6.95
2023-04-15T11:23:49.528Z,6.00
2023-04-15T11:26:16.476Z,5.88
2023-04-15T11:28:45.734Z,5.40
2023-04-15T11:31:18.638Z,5.68
2023-04-15T11:34:02.772Z,5.50
2023-04-15T11:36:32.364Z,5.68
2023-04-15T11:39:00.531Z,5.35
2023-04-15T11:41:27.707Z,5.25
2023-04-15T11:43:54.852Z,4.80
2023-04-15T11:46:23.229Z,5.90
2023-04-15T11:48:50.582Z,5.10
2023-04-15T11:51:17.738Z,5.28
2023-04-15T11:53:50.777Z,5.20
2023-04-15T11:56:28.703Z,5.60
2023-04-15T11:59:01.503Z,4.50
2023-04-15T12:01:46.859Z,5.57
2023-04-15T12:06:43.256Z,5.05
2023-04-15T12:09:13.255Z,5.28
2023-04-15T12:11:50.312Z,5.15
2023-04-15T12:14:31.399Z,4.60
2023-04-15T12:17:07.422Z,4.57
2023-04-15T12:19:43.226Z,4.68
2023-04-15T12:22:14.129Z,4.72
2023-04-15T12:24:48.505Z,4.70
2023-04-15T12:27:17.204Z,4.37
2023-04-15T12:29:44.274Z,4.47
2023-04-15T12:32:16.080Z,4.68
2023-04-15T12:34:54.671Z,4.70
2023-04-15T12:37:22.243Z,4.32
2023-04-15T12:39:50.728Z,4.40
2023-04-15T12:42:18.873Z,4.82
2023-04-15T12:44:46.638Z,4.82
2023-04-15T12:47:14.493Z,4.82
2023-04-15T12:49:41.723Z,4.75
2023-04-15T12:52:08.691Z,4.72
2023-04-15T12:54:36.606Z,4.75
2023-04-15T12:57:06.799Z,4.55
2023-04-15T12:59:35.512Z,4.68
2023-04-15T13:02:04.647Z,4.22
2023-04-15T13:04:32.211Z,3.85
2023-04-15T13:06:59.293Z,4.20
2023-04-15T13:09:26.262Z,4.50
2023-04-15T13:11:53.423Z,3.92
2023-04-15T13:14:20.449Z,3.17
2023-04-15T13:16:47.448Z,3.20
2023-04-15T13:19:15.060Z,3.00
2023-04-15T13:21:41.985Z,2.90
2023-04-15T13:24:09.921Z,2.90
2023-04-15T13:26:36.933Z,2.30
2023-04-15T13:29:03.826Z,2.20
2023-04-15T13:31:31.372Z,2.67
2023-04-15T13:33:58.260Z,2.53
2023-04-15T13:36:25.334Z,2.80
2023-04-15T13:38:52.353Z,2.70
2023-04-15T13:41:20.294Z,2.83
2023-04-15T13:43:47.494Z,2.78
2023-04-15T13:46:14.948Z,2.30
2023-04-15T13:48:42.108Z,2.28
2023-04-15T13:51:09.110Z,2.30
2023-04-15T13:53:39.210Z,2.80
2023-04-15T13:56:10.730Z,2.75
2023-04-15T13:58:38.641Z,3.10
2023-04-15T14:01:07.246Z,3.13
2023-04-15T14:03:38.653Z,2.78
2023-04-15T14:06:08.528Z,2.28
2023-04-15T14:08:35.407Z,2.13
2023-04-15T14:11:02.435Z,2.53
2023-04-15T14:13:29.620Z,2.47
2023-04-15T14:15:57.566Z,2.17
2023-04-15T14:18:24.542Z,2.30
2023-04-15T14:20:51.982Z,2.65
2023-04-15T14:23:18.902Z,2.50
2023-04-15T14:25:47.919Z,2.70
2023-04-15T14:28:15.527Z,2.75
2023-04-15T14:30:42.769Z,2.47
2023-04-15T14:33:09.869Z,2.28
2023-04-15T14:35:36.844Z,2.50
2023-04-15T14:38:04.217Z,2.45
2023-04-15T14:40:31.225Z,3.15
2023-04-15T14:42:58.078Z,2.60
2023-04-15T14:45:25.133Z,2.75
2023-04-15T14:47:53.563Z,2.45
2023-04-15T14:50:20.593Z,2.38
2023-04-15T14:52:47.590Z,2.63
2023-04-15T14:55:14.870Z,2.50
2023-04-15T14:57:43.255Z,2.47
2023-04-15T15:00:14.534Z,2.75
2023-04-15T15:02:43.641Z,3.20
2023-04-15T15:05:12.338Z,2.55
2023-04-15T15:07:41.205Z,2.50
2023-04-15T15:10:08.730Z,2.50
2023-04-15T15:12:36.162Z,2.63
2023-04-15T15:15:15.711Z,2.50
2023-04-15T15:17:52.446Z,2.10
2023-04-15T15:20:19.685Z,2.10
2023-04-15T15:22:46.650Z,2.10
2023-04-15T15:25:13.576Z,2.00
2023-04-15T15:27:40.637Z,2.03
2023-04-15T15:30:08.287Z,2.50
2023-04-15T15:32:35.760Z,2.35
2023-04-15T15:35:02.816Z,2.40
2023-04-15T15:37:31.727Z,2.20
2023-04-15T15:39:58.897Z,1.95
2023-04-15T15:42:25.786Z,2.25
2023-04-15T15:44:53.411Z,2.10
2023-04-15T15:47:22.746Z,1.92
2023-04-15T15:49:49.958Z,2.03
2023-04-15T15:52:16.837Z,2.47
2023-04-15T15:54:44.089Z,2.35
2023-04-15T15:57:11.536Z,2.00
2023-04-15T15:59:41.434Z,2.60
2023-04-15T16:02:12.041Z,2.22
2023-04-15T16:04:40.114Z,2.15
2023-04-15T16:07:07.206Z,2.80
2023-04-15T16:09:34.123Z,2.17
2023-04-15T16:12:02.400Z,2.35
2023-04-15T16:14:29.319Z,2.20
2023-04-15T16:16:56.792Z,2.40
2023-04-15T16:19:23.842Z,2.10
2023-04-15T16:21:51.370Z,2.10
2023-04-15T16:24:18.513Z,2.03
2023-04-15T16:26:45.614Z,2.35
2023-04-15T16:29:12.583Z,2.35
2023-04-15T16:31:40.309Z,3.40
2023-04-15T16:34:07.322Z,2.85
2023-04-15T16:36:35.891Z,2.38
2023-04-15T16:39:02.983Z,2.50
2023-04-15T16:41:30.106Z,2.65
2023-04-15T16:43:58.898Z,2.72
2023-04-15T16:46:25.900Z,2.30
2023-04-15T16:48:53.153Z,2.53
2023-04-15T16:51:20.019Z,2.10
2023-04-15T16:53:46.973Z,2.75
2023-04-15T16:56:13.919Z,2.20
2023-04-15T16:58:41.013Z,2.38
2023-04-15T17:01:08.678Z,1.92
2023-04-15T17:03:37.116Z,2.40
2023-04-15T17:06:04.465Z,2.53
2023-04-15T17:08:31.333Z,2.72
2023-04-15T17:10:58.812Z,3.30
2023-04-15T17:13:26.850Z,3.72
2023-04-15T17:15:55.768Z,2.65
2023-04-15T17:18:22.838Z,2.92
2023-04-15T17:20:49.750Z,3.10
2023-04-15T17:23:16.695Z,2.97
2023-04-15T17:25:43.682Z,3.42
2023-04-15T17:28:10.757Z,3.13
2023-04-15T17:30:37.809Z,2.70
2023-04-15T17:33:55.287Z,2.78
2023-04-15T17:35:51.691Z,3.05
2023-04-15T17:38:18.760Z,2.60
2023-04-15T17:40:45.687Z,3.42
2023-04-15T17:43:12.678Z,3.38
2023-04-15T17:45:39.616Z,3.10
2023-04-15T17:48:06.655Z,3.28
2023-04-15T17:50:33.643Z,3.80
2023-04-15T17:53:00.744Z,6.15
2023-04-15T17:55:27.624Z,7.63
2023-04-15T17:57:54.703Z,9.38
2023-04-15T18:00:21.751Z,10.05
2023-04-15T18:02:49.057Z,5.90
2023-04-15T18:05:18.997Z,4.20
2023-04-15T18:07:46.301Z,3.95
2023-04-15T18:10:13.202Z,3.90
2023-04-15T18:12:40.103Z,6.75
2023-04-15T18:15:09.681Z,6.85
2023-04-15T18:17:36.800Z,5.18
2023-04-15T18:20:04.512Z,3.75
2023-04-15T18:22:31.386Z,3.30
2023-04-15T18:25:04.263Z,3.45
2023-04-15T18:27:32.679Z,3.33
2023-04-15T18:30:00.164Z,3.40
2023-04-15T18:32:31.814Z,3.83
2023-04-15T18:34:59.084Z,4.60
2023-04-15T18:37:27.200Z,4.70
2023-04-15T18:39:54.473Z,4.00
2023-04-15T18:42:22.637Z,4.03
2023-04-15T18:44:50.086Z,4.38
2023-04-15T18:47:17.874Z,4.90
2023-04-15T18:49:44.978Z,4.50
2023-04-15T18:52:12.553Z,4.63
2023-04-15T18:54:39.547Z,4.72
2023-04-15T18:57:07.099Z,4.10
2023-04-15T18:59:34.337Z,4.40
2023-04-15T19:02:02.444Z,5.20
2023-04-15T19:04:29.631Z,10.45
2023-04-15T19:06:56.887Z,11.45
2023-04-15T19:09:24.129Z,10.60
2023-04-15T19:11:51.135Z,10.77
2023-04-15T19:14:18.912Z,9.68
2023-04-15T19:16:45.857Z,9.70
2023-04-15T19:19:14.916Z,11.02
2023-04-15T19:21:41.962Z,10.85
2023-04-15T19:24:09.051Z,12.07
2023-04-15T19:26:37.187Z,8.05
2023-04-15T19:29:04.180Z,5.30
2023-04-15T19:31:31.268Z,7.15
2023-04-15T19:33:58.132Z,7.88
2023-04-15T19:36:25.057Z,8.15
2023-04-15T19:38:52.377Z,8.80
2023-04-15T19:41:19.565Z,7.82
2023-04-15T19:43:46.440Z,7.18
2023-04-15T19:46:13.711Z,6.53
2023-04-15T19:48:40.773Z,5.75
2023-04-15T19:51:07.716Z,5.45
2023-04-15T19:53:35.056Z,4.53
2023-04-15T19:56:02.200Z,5.55
2023-04-15T19:58:29.340Z,4.53
2023-04-15T20:00:57.109Z,4.97
2023-04-15T20:03:24.302Z,5.00
2023-04-15T20:05:51.388Z,5.13
2023-04-15T20:08:18.580Z,6.63
2023-04-15T20:10:45.634Z,7.30
2023-04-15T20:13:13.312Z,7.82
2023-04-15T20:15:40.212Z,7.95
2023-04-15T20:18:07.249Z,6.50
2023-04-15T20:20:35.606Z,6.35
2023-04-15T20:23:02.847Z,6.20
2023-04-15T20:25:29.814Z,5.80
2023-04-15T20:28:00.415Z,5.78
2023-04-15T20:30:29.639Z,5.47
2023-04-15T20:32:56.713Z,6.28
2023-04-15T20:35:25.428Z,5.93
2023-04-15T20:37:52.435Z,5.90
2023-04-15T20:40:19.311Z,6.22
2023-04-15T20:42:46.291Z,6.32
2023-04-15T20:45:13.259Z,6.70
2023-04-15T20:47:40.183Z,6.53
2023-04-15T20:50:08.427Z,6.85
2023-04-15T20:52:35.301Z,6.63
2023-04-15T20:55:02.183Z,6.35
2023-04-15T20:57:30.406Z,6.95
2023-04-15T20:59:57.653Z,7.00
2023-04-15T21:02:25.066Z,7.53
2023-04-15T21:04:52.117Z,7.85
2023-04-15T21:07:19.008Z,7.78
2023-04-15T21:09:47.118Z,8.38
2023-04-15T21:12:14.324Z,8.63
2023-04-15T21:14:41.291Z,8.50
2023-04-15T21:17:11.194Z,9.07
2023-04-15T21:19:38.859Z,8.90
2023-04-15T21:22:05.883Z,9.68
2023-04-15T21:24:32.772Z,9.57
2023-04-15T21:26:59.620Z,10.05
2023-04-15T21:29:26.621Z,10.13
2023-04-15T21:31:53.582Z,11.20
2023-04-15T21:34:20.520Z,12.40
2023-04-15T21:36:47.459Z,11.25
2023-04-15T21:39:14.387Z,11.70
2023-04-15T21:41:41.332Z,11.27
2023-04-15T21:44:08.625Z,12.13
2023-04-15T21:46:35.888Z,12.60
2023-04-15T21:49:03.788Z,11.77
2023-04-15T21:51:31.718Z,12.05
2023-04-15T21:53:59.460Z,12.60
2023-04-15T21:56:26.702Z,14.60
2023-04-15T21:58:59.793Z,14.40
2023-04-15T22:01:27.155Z,13.85
2023-04-15T22:03:54.325Z,14.38
2023-04-15T22:06:21.691Z,14.82
2023-04-15T22:08:57.083Z,15.05
2023-04-15T22:11:28.806Z,15.65
2023-04-15T22:13:57.503Z,16.10
2023-04-15T22:16:28.903Z,14.02
2023-04-15T22:18:56.262Z,14.23
2023-04-15T22:21:26.972Z,16.75
2023-04-15T22:24:33.776Z,16.48
2023-04-15T22:26:41.372Z,17.35
2023-04-15T22:29:08.592Z,16.45
2023-04-15T22:31:35.829Z,17.13
2023-04-15T22:34:02.717Z,16.67
2023-04-15T22:36:31.961Z,16.20
2023-04-15T22:38:58.899Z,15.80
2023-04-15T22:41:25.762Z,17.15
2023-04-15T22:43:53.000Z,15.77
2023-04-15T22:46:20.060Z,16.05
2023-04-15T22:48:47.119Z,15.52
2023-04-15T22:51:22.265Z,14.05
2023-04-15T22:53:50.655Z,14.68
2023-04-15T22:56:22.844Z,15.73
2023-04-15T22:58:50.130Z,15.23
2023-04-15T23:01:18.072Z,13.95
2023-04-15T23:03:57.001Z,16.38
2023-04-15T23:06:30.390Z,20.08
2023-04-15T23:08:57.442Z,28.67
2023-04-15T23:11:24.378Z,27.52
2023-04-15T23:13:51.323Z,24.42
2023-04-15T23:16:18.290Z,24.10
2023-04-15T23:18:45.188Z,21.80
2023-04-15T23:21:12.134Z,19.42
2023-04-15T23:23:39.080Z,18.00
2023-04-15T23:26:06.469Z,16.73
2023-04-15T23:28:33.585Z,16.50
2023-04-15T23:31:00.763Z,15.23
2023-04-15T23:33:27.960Z,14.95
2023-04-15T23:35:54.915Z,14.80
2023-04-15T23:38:21.852Z,13.32
2023-04-15T23:40:48.777Z,14.02
2023-04-15T23:43:15.654Z,13.90
2023-04-15T23:45:42.663Z,13.65
2023-04-15T23:48:09.591Z,12.80
2023-04-15T23:50:36.484Z,13.63
2023-04-15T23:53:03.421Z,13.40
2023-04-15T23:55:31.445Z,13.63
2023-04-15T23:57:58.382Z,13.23
